Time;durP1;ratioP1;P1;durP2;ratioP2;P2;SDS_P1;SDS_P2;PMS_P1;PMS_P2;Temp;Humidity;BMP_temperature;BMP_pressure;BME280_temperature;BME280_humidity;BME280_pressure;Samples;Min_cycle;Max_cycle;Signal;HPM_P1;HPM_P2
2021/11/26 00:02:20;;;;;;;19.38;6.30;;;15.60;99.90;;;;;;5113506;28;20031;-61
2021/11/26 00:04:49;;;;;;;20.42;7.03;;;15.60;99.90;;;;;;5109869;28;20036;-60
2021/11/26 00:07:20;;;;;;;22.33;6.85;;;15.60;99.90;;;;;;5109533;28;20035;-60
2021/11/26 00:09:48;;;;;;;13.07;6.32;;;15.60;99.90;;;;;;5093002;28;20050;-60
2021/11/26 00:12:17;;;;;;;17.35;7.47;;;15.60;99.90;;;;;;5109965;28;20539;-60
2021/11/26 00:15:05;;;;;;;14.82;7.63;;;15.50;99.90;;;;;;5109565;28;20046;-60
2021/11/26 00:17:34;;;;;;;21.00;7.45;;;15.60;99.90;;;;;;5108938;28;20567;-60
2021/11/26 00:20:02;;;;;;;19.40;8.23;;;15.50;99.90;;;;;;5092362;28;20426;-60
2021/11/26 00:22:30;;;;;;;22.35;9.10;;;15.60;99.90;;;;;;5108410;28;20031;-61
2021/11/26 00:24:57;;;;;;;19.48;9.73;;;15.50;99.90;;;;;;5070612;28;20126;-60
2021/11/26 00:27:24;;;;;;;20.17;8.57;;;15.50;99.90;;;;;;5105130;28;20027;-59
2021/11/26 00:29:52;;;;;;;20.50;8.63;;;15.50;99.90;;;;;;5110720;27;20471;-60
2021/11/26 00:32:20;;;;;;;17.38;8.90;;;15.50;99.90;;;;;;5103585;27;20039;-61
2021/11/26 00:34:47;;;;;;;15.82;8.93;;;15.50;99.90;;;;;;5108198;27;20118;-61
2021/11/26 00:37:15;;;;;;;16.65;8.77;;;15.50;99.90;;;;;;5088755;28;20036;-60
2021/11/26 00:39:51;;;;;;;19.17;8.02;;;15.40;99.90;;;;;;5109954;28;20134;-59
2021/11/26 00:42:21;;;;;;;19.05;7.45;;;15.30;99.90;;;;;;5096884;28;20181;-59
2021/11/26 00:44:49;;;;;;;13.38;7.43;;;15.20;99.90;;;;;;5116086;28;20053;-60
2021/11/26 00:47:16;;;;;;;15.48;7.63;;;15.20;99.90;;;;;;5100807;28;20035;-59
2021/11/26 00:49:44;;;;;;;16.33;7.68;;;15.10;99.90;;;;;;5114168;28;20042;-60
2021/11/26 00:52:11;;;;;;;10.98;5.90;;;15.00;99.90;;;;;;5093513;28;20040;-60
2021/11/26 00:54:39;;;;;;;15.30;6.72;;;15.10;99.90;;;;;;5110699;28;20035;-60
2021/11/26 00:57:08;;;;;;;20.38;8.00;;;15.00;99.90;;;;;;5111736;27;20547;-60
2021/11/26 00:59:37;;;;;;;14.73;7.68;;;15.00;99.90;;;;;;5093919;28;20382;-60
2021/11/26 01:02:06;;;;;;;24.58;9.45;;;15.00;99.90;;;;;;5115935;28;20035;-60
2021/11/26 01:04:34;;;;;;;17.38;8.40;;;14.90;99.90;;;;;;5116194;28;20076;-59
2021/11/26 01:07:02;;;;;;;18.15;8.23;;;14.90;99.90;;;;;;5116139;28;20118;-59
2021/11/26 01:09:30;;;;;;;18.45;8.60;;;14.80;99.90;;;;;;5116229;28;20577;-59
2021/11/26 01:11:58;;;;;;;17.15;7.13;;;14.80;99.90;;;;;;5116404;28;20031;-60
2021/11/26 01:14:25;;;;;;;21.90;9.68;;;14.80;99.90;;;;;;5116517;28;20532;-59
2021/11/26 01:16:53;;;;;;;24.80;11.43;;;14.80;99.90;;;;;;5086494;28;20043;-59
2021/11/26 01:19:22;;;;;;;19.23;9.40;;;14.80;99.90;;;;;;5077664;28;20046;-59
2021/11/26 01:21:50;;;;;;;15.07;6.63;;;14.80;99.90;;;;;;5097882;28;20041;-59
2021/11/26 01:24:17;;;;;;;15.82;5.53;;;14.80;99.90;;;;;;5115851;28;20043;-59
2021/11/26 01:26:45;;;;;;;9.00;5.28;;;14.80;99.90;;;;;;5098030;28;20044;-59
2021/11/26 01:29:12;;;;;;;14.93;5.88;;;14.90;99.90;;;;;;5097914;28;20477;-59
2021/11/26 01:31:41;;;;;;;10.30;4.90;;;15.00;99.90;;;;;;5115862;28;20043;-59
2021/11/26 01:34:09;;;;;;;8.38;3.65;;;15.10;99.90;;;;;;5115959;28;20044;-60
2021/11/26 01:36:37;;;;;;;7.15;3.50;;;15.00;99.90;;;;;;5097401;28;20046;-60
2021/11/26 01:39:05;;;;;;;9.15;3.85;;;15.00;99.90;;;;;;5115323;28;20035;-59
2021/11/26 01:41:35;;;;;;;7.47;3.92;;;14.90;99.90;;;;;;5065139;28;20044;-59
2021/11/26 01:44:03;;;;;;;7.95;3.28;;;14.90;99.90;;;;;;5060078;28;20397;-60
2021/11/26 01:46:31;;;;;;;3.15;2.00;;;14.90;99.90;;;;;;5060735;28;20040;-59
2021/11/26 01:48:58;;;;;;;3.78;2.22;;;14.90;99.90;;;;;;5095223;28;20044;-59
2021/11/26 01:51:26;;;;;;;7.28;4.45;;;14.80;99.90;;;;;;5095065;28;20490;-60
2021/11/26 01:53:53;;;;;;;17.48;5.57;;;14.70;99.90;;;;;;5095131;28;20032;-59
2021/11/26 01:56:21;;;;;;;10.68;3.92;;;14.70;99.90;;;;;;5077071;28;20039;-59
2021/11/26 01:58:48;;;;;;;12.57;4.60;;;14.60;99.90;;;;;;5076970;28;20040;-60
2021/11/26 02:01:16;;;;;;;13.80;4.35;;;14.60;99.90;;;;;;5076756;28;20432;-59
2021/11/26 02:03:44;;;;;;;10.35;5.57;;;14.70;99.90;;;;;;5076720;28;20470;-59
2021/11/26 02:06:11;;;;;;;10.18;5.07;;;14.70;99.90;;;;;;5076563;28;20036;-60
2021/11/26 02:08:39;;;;;;;11.02;4.78;;;14.80;99.90;;;;;;5093565;28;20036;-59
2021/11/26 02:11:06;;;;;;;14.90;5.57;;;14.80;99.90;;;;;;5076660;28;20036;-59
2021/11/26 02:13:34;;;;;;;9.85;5.10;;;14.80;99.90;;;;;;5076752;28;20131;-59
2021/11/26 02:16:03;;;;;;;10.35;5.13;;;14.80;99.90;;;;;;5094838;28;20893;-59
2021/11/26 02:18:31;;;;;;;15.73;5.20;;;14.80;99.90;;;;;;5076641;28;20051;-59
2021/11/26 02:20:58;;;;;;;13.70;4.40;;;14.80;99.90;;;;;;5076284;28;20067;-60
2021/11/26 02:23:26;;;;;;;12.15;5.10;;;14.80;99.90;;;;;;5076342;28;20040;-59
2021/11/26 02:25:54;;;;;;;9.48;4.50;;;14.80;99.90;;;;;;5076492;28;20141;-59
2021/11/26 02:28:22;;;;;;;9.75;6.10;;;14.80;99.90;;;;;;5094627;28;20055;-59
2021/11/26 02:30:49;;;;;;;10.07;4.72;;;14.90;99.90;;;;;;5094383;28;20034;-59
2021/11/26 02:33:21;;;;;;;12.88;5.03;;;14.90;99.90;;;;;;5076208;28;20069;-59
2021/11/26 02:35:51;;;;;;;12.15;4.53;;;14.90;99.90;;;;;;5094261;28;20123;-59
2021/11/26 02:38:21;;;;;;;17.05;5.13;;;14.90;99.90;;;;;;5059657;28;20115;-59
2021/11/26 02:40:49;;;;;;;14.40;6.18;;;14.90;99.90;;;;;;5094293;28;20044;-59
2021/11/26 02:43:17;;;;;;;17.63;5.30;;;14.80;99.90;;;;;;5076158;28;20044;-59
2021/11/26 02:45:46;;;;;;;16.70;6.15;;;14.80;99.90;;;;;;5076217;28;20067;-60
2021/11/26 02:48:14;;;;;;;10.77;5.35;;;14.80;99.90;;;;;;5075472;28;20068;-60
2021/11/26 02:50:44;;;;;;;15.18;5.45;;;14.80;99.90;;;;;;5094037;28;20474;-59
2021/11/26 02:53:12;;;;;;;11.55;6.22;;;14.80;99.90;;;;;;5093507;28;20127;-59
2021/11/26 02:55:40;;;;;;;14.70;6.22;;;14.80;99.90;;;;;;5093822;28;20442;-59
2021/11/26 02:58:08;;;;;;;11.57;4.80;;;14.80;99.90;;;;;;5093977;28;20496;-59
2021/11/26 03:00:39;;;;;;;14.52;5.28;;;14.80;99.90;;;;;;5075895;28;20036;-59
2021/11/26 03:03:06;;;;;;;14.80;6.10;;;14.80;99.90;;;;;;5075852;28;20116;-60
2021/11/26 03:05:34;;;;;;;20.05;6.40;;;14.80;99.90;;;;;;5093851;28;20480;-59
2021/11/26 03:08:02;;;;;;;12.45;6.40;;;14.80;99.90;;;;;;5093908;28;20378;-59
2021/11/26 03:10:30;;;;;;;16.98;6.38;;;14.80;99.90;;;;;;5093857;28;20494;-59
2021/11/26 03:13:02;;;;;;;11.88;5.80;;;14.80;99.90;;;;;;5075882;28;20489;-59
2021/11/26 03:15:31;;;;;;;14.75;8.05;;;14.90;99.90;;;;;;5093750;28;20086;-59
2021/11/26 03:17:59;;;;;;;18.13;6.97;;;14.90;99.90;;;;;;5093623;28;20040;-59
2021/11/26 03:20:28;;;;;;;15.18;6.78;;;14.90;99.90;;;;;;5093576;28;20072;-59
2021/11/26 03:22:56;;;;;;;15.27;7.03;;;14.90;99.90;;;;;;5075693;28;20075;-59
2021/11/26 03:25:25;;;;;;;17.73;7.00;;;15.00;99.90;;;;;;5093596;28;20040;-59
2021/11/26 03:27:53;;;;;;;25.08;7.90;;;15.00;99.90;;;;;;5075589;28;20574;-59
2021/11/26 03:30:22;;;;;;;18.15;7.72;;;15.00;99.90;;;;;;5093477;28;20373;-60
2021/11/26 03:32:50;;;;;;;27.48;8.48;;;15.10;99.90;;;;;;5075874;28;20044;-59
2021/11/26 03:35:19;;;;;;;24.45;8.13;;;15.10;99.90;;;;;;5093569;28;20040;-60
2021/11/26 03:37:47;;;;;;;17.05;7.30;;;15.10;99.90;;;;;;5075216;28;20044;-60
2021/11/26 03:40:18;;;;;;;15.82;7.97;;;15.20;99.90;;;;;;5093562;28;20052;-60
2021/11/26 03:42:46;;;;;;;18.98;6.72;;;15.20;99.90;;;;;;5075720;28;20045;-60
2021/11/26 03:45:15;;;;;;;10.60;6.97;;;15.30;99.90;;;;;;5059018;28;20122;-60
2021/11/26 03:47:44;;;;;;;21.65;8.35;;;15.30;99.90;;;;;;5093299;28;20040;-60
2021/11/26 03:50:12;;;;;;;15.50;6.85;;;15.30;99.90;;;;;;5075457;28;20119;-60
2021/11/26 03:52:40;;;;;;;13.57;7.03;;;15.30;99.90;;;;;;5093567;28;20040;-60
2021/11/26 03:55:12;;;;;;;18.88;8.90;;;15.30;99.90;;;;;;5042364;28;20044;-59
2021/11/26 03:57:40;;;;;;;17.23;8.10;;;15.40;99.90;;;;;;5075706;28;20071;-60
2021/11/26 04:00:09;;;;;;;17.27;6.95;;;15.40;99.90;;;;;;5093248;28;20086;-59
2021/11/26 04:02:40;;;;;;;19.10;6.22;;;15.40;99.90;;;;;;5075775;28;20102;-60
2021/11/26 04:05:08;;;;;;;21.58;7.93;;;15.30;99.90;;;;;;5059896;28;20064;-60
2021/11/26 04:07:35;;;;;;;17.10;7.40;;;15.30;99.90;;;;;;5096939;28;20063;-60
2021/11/26 04:10:04;;;;;;;28.30;7.63;;;15.30;99.90;;;;;;5096938;28;20478;-60
2021/11/26 04:12:32;;;;;;;13.23;6.45;;;15.30;99.90;;;;;;5096889;28;20369;-60
2021/11/26 04:14:59;;;;;;;20.98;6.75;;;15.30;99.90;;;;;;5078969;28;20426;-59
2021/11/26 04:17:27;;;;;;;15.43;7.90;;;15.30;99.90;;;;;;5096855;28;20123;-60
2021/11/26 04:19:54;;;;;;;18.40;7.00;;;15.30;99.90;;;;;;5096861;28;20078;-59
2021/11/26 04:22:22;;;;;;;19.20;7.45;;;15.30;99.90;;;;;;5096687;28;20042;-59
2021/11/26 04:24:49;;;;;;;22.98;7.78;;;15.20;99.90;;;;;;5078866;28;20039;-59
2021/11/26 04:27:17;;;;;;;23.13;8.25;;;15.20;99.90;;;;;;5096712;28;20438;-59
2021/11/26 04:29:44;;;;;;;21.52;7.28;;;15.20;99.90;;;;;;5096704;28;20043;-59
2021/11/26 04:32:14;;;;;;;17.42;7.03;;;15.20;99.90;;;;;;5096489;28;20047;-60
2021/11/26 04:34:42;;;;;;;17.27;7.40;;;15.20;99.90;;;;;;5078768;28;20062;-60
2021/11/26 04:37:09;;;;;;;16.70;8.40;;;15.10;99.90;;;;;;5078319;28;20490;-60
2021/11/26 04:39:37;;;;;;;19.27;6.60;;;15.10;99.90;;;;;;5078119;28;20048;-59
2021/11/26 04:42:04;;;;;;;18.27;7.05;;;15.10;99.90;;;;;;5096627;28;20036;-60
2021/11/26 04:44:32;;;;;;;12.95;7.00;;;15.10;99.90;;;;;;5096478;28;20079;-60
2021/11/26 04:46:59;;;;;;;18.75;7.68;;;15.10;99.90;;;;;;5078484;28;20076;-59
2021/11/26 04:49:27;;;;;;;10.45;5.90;;;15.10;99.90;;;;;;5061645;28;20074;-60
2021/11/26 04:51:55;;;;;;;12.68;6.32;;;15.10;99.90;;;;;;5096286;28;20123;-60
2021/11/26 04:54:23;;;;;;;14.20;5.93;;;15.10;99.90;;;;;;5096121;28;20454;-60
2021/11/26 04:56:50;;;;;;;20.70;4.53;;;15.10;99.90;;;;;;5096242;28;20155;-59
2021/11/26 04:59:18;;;;;;;16.08;4.47;;;15.10;99.90;;;;;;5096122;28;20032;-60
2021/11/26 05:01:45;;;;;;;5.65;3.55;;;15.00;99.90;;;;;;5096067;28;20039;-60
2021/11/26 05:04:13;;;;;;;6.60;3.97;;;15.00;99.90;;;;;;5095936;28;20115;-60
2021/11/26 05:06:40;;;;;;;4.40;2.97;;;15.00;99.90;;;;;;5095965;28;20040;-60
2021/11/26 05:09:09;;;;;;;5.13;2.35;;;15.00;99.90;;;;;;5078219;28;20048;-60
2021/11/26 05:11:38;;;;;;;6.18;2.25;;;15.00;99.90;;;;;;5078199;28;20485;-60
2021/11/26 05:14:07;;;;;;;4.32;2.75;;;15.00;99.90;;;;;;5095937;28;20038;-60
2021/11/26 05:16:35;;;;;;;3.92;2.50;;;15.10;99.90;;;;;;5077024;28;20127;-60
2021/11/26 05:19:03;;;;;;;6.13;3.38;;;15.00;99.90;;;;;;5077761;28;20040;-60
2021/11/26 05:21:30;;;;;;;6.20;2.85;;;15.00;99.90;;;;;;5077357;28;20555;-60
2021/11/26 05:23:58;;;;;;;7.05;2.95;;;15.00;99.90;;;;;;5098086;28;20063;-60
2021/11/26 05:26:26;;;;;;;5.15;2.50;;;15.10;99.90;;;;;;5110772;28;20036;-60
2021/11/26 05:28:53;;;;;;;4.97;2.85;;;15.10;99.90;;;;;;5092890;28;20043;-60
2021/11/26 05:31:21;;;;;;;6.47;2.95;;;15.10;99.90;;;;;;5106314;28;20489;-60
2021/11/26 05:33:49;;;;;;;5.63;3.42;;;15.10;99.90;;;;;;5102035;28;20381;-60
2021/11/26 05:36:17;;;;;;;6.90;3.15;;;15.10;99.90;;;;;;5103615;28;20058;-60
2021/11/26 05:38:44;;;;;;;6.32;3.95;;;15.10;99.90;;;;;;5088560;28;20036;-60
2021/11/26 05:41:12;;;;;;;7.28;2.90;;;15.00;99.90;;;;;;5106666;28;20039;-60
2021/11/26 05:43:40;;;;;;;9.48;3.55;;;15.00;99.90;;;;;;5106961;27;20069;-60
2021/11/26 05:46:07;;;;;;;5.47;3.00;;;15.00;99.90;;;;;;5126509;27;20538;-60
2021/11/26 05:48:35;;;;;;;6.70;3.92;;;15.00;99.90;;;;;;5109242;28;20039;-60
2021/11/26 05:51:02;;;;;;;6.22;3.92;;;14.80;99.90;;;;;;5124728;27;20050;-60
2021/11/26 05:53:30;;;;;;;6.53;3.83;;;14.80;99.90;;;;;;5114570;27;20036;-60
2021/11/26 05:56:00;;;;;;;8.18;3.22;;;14.80;99.90;;;;;;5119994;27;20039;-60
2021/11/26 05:58:28;;;;;;;7.10;3.72;;;14.80;99.90;;;;;;5115275;28;20570;-60
2021/11/26 06:00:56;;;;;;;7.38;3.50;;;14.70;99.90;;;;;;5115074;28;20716;-59
2021/11/26 06:03:23;;;;;;;7.25;3.45;;;14.80;99.90;;;;;;5114866;28;20081;-60
2021/11/26 06:05:51;;;;;;;6.20;3.53;;;14.70;99.90;;;;;;5115304;28;20126;-60
2021/11/26 06:08:19;;;;;;;5.22;3.17;;;14.70;99.90;;;;;;5115211;28;20028;-60
2021/11/26 06:10:46;;;;;;;9.35;4.40;;;14.70;99.90;;;;;;5115057;28;20043;-59
2021/11/26 06:13:14;;;;;;;7.30;3.50;;;14.60;99.90;;;;;;5096708;28;20085;-60
2021/11/26 06:15:41;;;;;;;7.35;3.25;;;14.60;99.90;;;;;;5096993;28;20129;-60
2021/11/26 06:18:09;;;;;;;7.22;3.10;;;14.50;99.90;;;;;;5096675;28;20139;-60
2021/11/26 06:20:36;;;;;;;9.85;3.50;;;14.50;99.90;;;;;;5114983;28;20047;-59
2021/11/26 06:23:04;;;;;;;5.05;2.42;;;14.40;99.90;;;;;;5097012;28;20039;-59
2021/11/26 06:25:32;;;;;;;5.28;2.75;;;14.30;99.90;;;;;;5096452;28;20130;-59
2021/11/26 06:27:59;;;;;;;6.35;3.13;;;14.30;99.90;;;;;;5114644;28;20084;-59
2021/11/26 06:30:27;;;;;;;5.60;2.40;;;14.30;99.90;;;;;;5096583;28;20044;-60
2021/11/26 06:32:55;;;;;;;6.10;2.75;;;14.40;99.90;;;;;;5114911;28;20035;-60
2021/11/26 06:35:24;;;;;;;4.10;2.47;;;14.40;99.90;;;;;;5114852;28;20493;-60
2021/11/26 06:37:54;;;;;;;3.97;2.28;;;14.40;99.90;;;;;;5096234;28;20365;-60
2021/11/26 06:40:22;;;;;;;6.57;2.65;;;14.40;99.90;;;;;;5114594;28;20060;-60
2021/11/26 06:42:49;;;;;;;5.18;2.85;;;14.40;99.90;;;;;;5114418;28;20122;-60
2021/11/26 06:45:17;;;;;;;6.50;2.90;;;14.40;99.90;;;;;;5079612;28;20044;-60
2021/11/26 06:47:46;;;;;;;6.05;2.70;;;14.50;99.90;;;;;;5096280;28;20411;-60
2021/11/26 06:50:15;;;;;;;6.68;3.03;;;14.60;99.90;;;;;;5079620;28;20402;-59
2021/11/26 06:52:43;;;;;;;4.75;2.63;;;15.10;99.90;;;;;;5096709;28;20036;-60
2021/11/26 06:55:11;;;;;;;6.63;2.38;;;16.10;99.90;;;;;;5079649;28;20065;-60
2021/11/26 06:57:40;;;;;;;4.63;2.28;;;17.70;99.90;;;;;;5096354;28;20035;-60
2021/11/26 07:00:11;;;;;;;4.30;2.00;;;19.40;99.90;;;;;;5096061;28;20031;-60
2021/11/26 07:02:39;;;;;;;4.72;2.15;;;20.90;99.90;;;;;;5114289;28;20032;-60
2021/11/26 07:05:07;;;;;;;6.45;2.55;;;22.30;99.90;;;;;;5096259;28;20385;-60
2021/11/26 07:07:36;;;;;;;9.52;2.03;;;23.10;99.90;;;;;;5114305;28;20036;-60
2021/11/26 07:10:04;;;;;;;3.70;1.55;;;24.00;99.90;;;;;;5096135;28;20070;-60
2021/11/26 07:12:34;;;;;;;4.75;2.97;;;24.60;99.90;;;;;;5114155;28;20370;-60
2021/11/26 07:15:04;;;;;;;5.43;2.30;;;25.30;99.90;;;;;;5096151;28;20050;-60
2021/11/26 07:17:32;;;;;;;6.85;2.28;;;25.10;99.70;;;;;;5096205;28;20043;-60
2021/11/26 07:19:59;;;;;;;4.07;1.50;;;24.60;99.60;;;;;;5114105;28;20459;-60
2021/11/26 07:22:27;;;;;;;5.78;2.08;;;24.10;99.30;;;;;;5079146;28;20044;-60
2021/11/26 07:24:55;;;;;;;6.68;2.80;;;22.10;99.90;;;;;;5113987;28;20088;-60
2021/11/26 07:27:23;;;;;;;4.57;2.33;;;21.50;99.90;;;;;;5079141;28;20496;-60
2021/11/26 07:29:52;;;;;;;4.90;2.65;;;21.50;99.90;;;;;;5114069;28;20040;-60
2021/11/26 07:32:19;;;;;;;4.05;2.20;;;21.50;99.90;;;;;;5114132;28;20032;-60
2021/11/26 07:34:47;;;;;;;5.20;1.80;;;21.30;99.90;;;;;;5079292;28;20085;-60
2021/11/26 07:37:16;;;;;;;5.55;2.00;;;21.30;99.90;;;;;;5114064;28;20067;-60
2021/11/26 07:39:44;;;;;;;6.88;2.97;;;21.10;99.90;;;;;;5114343;28;20146;-60
2021/11/26 07:42:12;;;;;;;4.82;2.20;;;21.40;99.90;;;;;;5117896;28;20538;-60
2021/11/26 07:44:41;;;;;;;6.38;2.70;;;21.40;99.90;;;;;;5117792;28;20047;-60
2021/11/26 07:47:11;;;;;;;7.95;2.75;;;21.70;99.90;;;;;;5099895;28;20044;-60
2021/11/26 07:49:40;;;;;;;8.30;2.50;;;21.90;99.90;;;;;;5117780;28;20093;-60
2021/11/26 07:52:09;;;;;;;11.40;2.45;;;22.00;99.90;;;;;;5099968;28;20526;-60
2021/11/26 07:54:38;;;;;;;8.90;2.85;;;21.90;99.90;;;;;;5117830;28;20032;-60
2021/11/26 07:57:05;;;;;;;8.95;2.65;;;22.10;99.90;;;;;;5118157;28;20076;-60
2021/11/26 07:59:33;;;;;;;4.38;1.80;;;21.60;99.90;;;;;;5099504;28;20119;-60
2021/11/26 08:02:00;;;;;;;6.18;2.05;;;21.30;99.90;;;;;;5117659;28;20485;-60
2021/11/26 08:04:28;;;;;;;5.60;2.08;;;21.00;99.90;;;;;;5117500;28;20095;-60
2021/11/26 08:06:57;;;;;;;3.70;1.83;;;20.70;99.90;;;;;;5099433;28;20032;-60
2021/11/26 08:09:25;;;;;;;4.43;1.85;;;20.90;99.90;;;;;;5099245;28;20039;-60
2021/11/26 08:11:53;;;;;;;6.40;2.63;;;20.40;99.90;;;;;;5117518;28;20093;-60
2021/11/26 08:14:20;;;;;;;5.60;2.63;;;20.20;99.90;;;;;;5117743;28;20118;-60
2021/11/26 08:16:50;;;;;;;4.22;1.90;;;20.00;99.90;;;;;;5099364;28;20533;-60
2021/11/26 08:19:18;;;;;;;3.60;2.05;;;19.70;99.90;;;;;;5099128;28;20067;-60
2021/11/26 08:21:47;;;;;;;4.40;1.60;;;19.50;99.90;;;;;;5117344;28;20128;-60
2021/11/26 08:24:15;;;;;;;6.45;2.42;;;19.40;99.90;;;;;;5099449;28;20036;-60
2021/11/26 08:26:44;;;;;;;4.30;2.20;;;19.30;99.90;;;;;;5099102;28;20119;-60
2021/11/26 08:29:12;;;;;;;7.75;2.08;;;19.40;99.90;;;;;;5117076;28;20040;-60
2021/11/26 08:31:40;;;;;;;4.30;2.08;;;19.40;99.90;;;;;;5117030;28;20512;-60
2021/11/26 08:34:08;;;;;;;5.07;2.10;;;19.30;99.90;;;;;;5116906;28;20126;-60
2021/11/26 08:36:36;;;;;;;3.60;1.80;;;19.30;99.90;;;;;;5116990;28;20032;-60
2021/11/26 08:39:06;;;;;;;3.85;2.15;;;19.40;99.90;;;;;;5098888;28;20035;-60
2021/11/26 08:41:34;;;;;;;5.20;1.90;;;19.50;99.90;;;;;;5098615;28;20040;-60
2021/11/26 08:44:02;;;;;;;3.78;1.75;;;19.50;99.90;;;;;;5116840;28;20449;-60
2021/11/26 08:46:30;;;;;;;6.82;2.00;;;19.60;99.90;;;;;;5098773;28;20085;-60
2021/11/26 08:48:59;;;;;;;4.90;1.50;;;19.60;99.90;;;;;;5098534;28;20040;-60
2021/11/26 08:51:29;;;;;;;3.53;1.77;;;19.60;99.90;;;;;;5115305;28;20081;-60
2021/11/26 08:53:57;;;;;;;4.25;1.92;;;19.50;99.90;;;;;;5116749;28;20040;-59
2021/11/26 08:56:26;;;;;;;3.38;1.52;;;19.20;99.90;;;;;;5098367;28;20053;-60
2021/11/26 08:58:53;;;;;;;4.57;2.15;;;19.00;99.90;;;;;;5098387;28;20134;-60
2021/11/26 09:01:22;;;;;;;10.02;3.67;;;19.10;99.90;;;;;;5116563;28;20035;-60
2021/11/26 09:03:50;;;;;;;4.30;2.60;;;19.20;99.90;;;;;;5081713;28;20040;-60
2021/11/26 09:06:20;;;;;;;3.53;2.20;;;19.20;99.90;;;;;;5116502;28;20035;-60
2021/11/26 09:08:47;;;;;;;3.30;1.98;;;18.90;99.90;;;;;;5116511;28;20081;-60
2021/11/26 09:11:16;;;;;;;4.38;1.73;;;19.00;99.90;;;;;;5081633;28;20131;-60
2021/11/26 09:13:45;;;;;;;2.72;1.50;;;19.00;99.90;;;;;;5097821;28;20031;-60
2021/11/26 09:16:13;;;;;;;6.88;1.92;;;19.00;99.90;;;;;;5081315;28;20039;-60
2021/11/26 09:18:40;;;;;;;5.55;1.95;;;19.00;99.90;;;;;;5098033;28;20043;-60
2021/11/26 09:21:09;;;;;;;9.68;2.67;;;19.20;99.90;;;;;;5097616;28;20051;-60
2021/11/26 09:23:36;;;;;;;6.20;1.90;;;19.50;99.90;;;;;;5116357;28;20059;-59
2021/11/26 09:26:04;;;;;;;6.38;2.33;;;19.60;99.90;;;;;;5097895;28;20035;-60
2021/11/26 09:28:32;;;;;;;5.70;1.40;;;19.80;99.90;;;;;;5115945;28;20035;-60
2021/11/26 09:30:59;;;;;;;7.40;2.20;;;19.90;99.90;;;;;;5097785;28;20093;-59
2021/11/26 09:33:35;;;;;;;4.88;2.03;;;19.90;99.90;;;;;;5116017;28;20485;-60
2021/11/26 09:36:07;;;;;;;6.90;1.98;;;19.80;99.90;;;;;;5115983;28;20199;-60
2021/11/26 09:38:38;;;;;;;5.03;1.40;;;19.80;99.90;;;;;;5097290;28;20071;-60
2021/11/26 09:41:08;;;;;;;4.15;1.50;;;19.90;99.90;;;;;;5097635;28;20035;-60
2021/11/26 09:43:47;;;;;;;5.57;2.15;;;19.90;99.90;;;;;;5115912;28;20039;-60
2021/11/26 09:46:18;;;;;;;4.57;1.40;;;20.00;99.90;;;;;;5115709;28;20044;-60
2021/11/26 09:48:46;;;;;;;4.55;2.00;;;20.10;99.90;;;;;;5097478;28;20067;-60
2021/11/26 09:51:14;;;;;;;3.65;1.70;;;20.20;99.90;;;;;;5115604;28;20032;-60
2021/11/26 09:53:42;;;;;;;4.20;1.48;;;20.30;99.90;;;;;;5115628;28;20422;-60
2021/11/26 09:56:10;;;;;;;4.93;1.80;;;20.30;99.90;;;;;;5115358;28;20477;-60
2021/11/26 09:58:38;;;;;;;2.72;1.50;;;20.20;99.90;;;;;;5115917;28;20391;-60
2021/11/26 10:01:08;;;;;;;3.50;1.40;;;20.10;99.90;;;;;;5115109;28;20043;-60
2021/11/26 10:03:47;;;;;;;5.25;2.42;;;20.00;99.90;;;;;;5114985;28;20055;-59
2021/11/26 10:06:27;;;;;;;6.40;1.60;;;20.10;99.90;;;;;;5097100;28;20488;-60
2021/11/26 10:09:02;;;;;;;6.72;2.45;;;19.90;99.90;;;;;;5115347;28;20376;-60
2021/11/26 10:11:31;;;;;;;3.25;2.05;;;19.70;99.90;;;;;;5114975;28;20066;-60
2021/11/26 10:13:59;;;;;;;6.30;2.50;;;19.70;99.90;;;;;;5097178;28;20469;-59
2021/11/26 10:16:53;;;;;;;5.75;2.42;;;19.50;99.90;;;;;;5114834;28;20036;-60
2021/11/26 10:19:47;;;;;;;5.00;1.70;;;19.50;99.90;;;;;;5096294;28;20043;-60
2021/11/26 10:22:20;;;;;;;3.05;1.50;;;19.40;99.90;;;;;;5114610;28;20543;-60
2021/11/26 10:25:13;;;;;;;6.55;2.10;;;19.50;99.90;;;;;;5114931;28;20043;-60
2021/11/26 10:27:43;;;;;;;3.53;1.58;;;19.70;99.90;;;;;;5114739;28;20044;-60
2021/11/26 10:30:34;;;;;;;3.22;2.00;;;19.90;99.90;;;;;;5114852;28;20035;-60
2021/11/26 10:33:02;;;;;;;4.38;1.92;;;19.80;99.90;;;;;;5114971;28;20134;-60
2021/11/26 10:35:34;;;;;;;3.38;1.73;;;20.00;99.90;;;;;;5114546;28;20031;-60
2021/11/26 10:38:14;;;;;;;3.33;1.83;;;20.10;99.90;;;;;;5114633;28;20477;-60
2021/11/26 10:40:49;;;;;;;3.20;2.00;;;19.80;99.90;;;;;;5096606;28;20496;-60
2021/11/26 10:59:51;;;;;;;15.30;1.95;;;19.90;99.60;;;;;;5114280;28;20404;-60
2021/11/26 11:02:28;;;;;;;3.63;1.50;;;19.90;99.90;;;;;;5114129;28;20122;-60
2021/11/26 11:04:56;;;;;;;3.95;1.98;;;19.90;99.90;;;;;;5096385;28;20489;-60
2021/11/26 11:07:24;;;;;;;2.60;1.48;;;19.90;99.90;;;;;;5095863;28;20035;-60
2021/11/26 11:09:56;;;;;;;5.80;1.50;;;19.70;99.90;;;;;;5079008;28;20111;-60
2021/11/26 11:12:38;;;;;;;2.95;1.20;;;19.30;99.90;;;;;;5095963;28;20047;-60
2021/11/26 11:15:11;;;;;;;5.72;1.92;;;19.00;99.90;;;;;;5113441;28;20035;-60
2021/11/26 11:17:39;;;;;;;5.28;1.25;;;18.70;99.90;;;;;;5114010;28;20040;-60
2021/11/26 11:20:11;;;;;;;3.40;1.20;;;18.60;99.90;;;;;;5095591;28;20031;-60
2021/11/26 11:22:39;;;;;;;2.08;1.08;;;18.50;99.90;;;;;;5095843;28;20122;-60
2021/11/26 11:25:10;;;;;;;5.72;1.90;;;18.60;99.90;;;;;;5113675;28;20081;-60
2021/11/26 11:27:38;;;;;;;2.58;1.80;;;18.50;99.90;;;;;;5079058;28;20028;-60
2021/11/26 11:30:09;;;;;;;4.00;1.58;;;18.50;99.90;;;;;;5095905;28;20142;-60
2021/11/26 11:32:38;;;;;;;3.33;1.35;;;18.40;99.90;;;;;;5113696;28;20058;-60
2021/11/26 11:35:11;;;;;;;3.90;1.20;;;18.50;99.90;;;;;;5095689;28;20032;-60
2021/11/26 11:37:40;;;;;;;5.82;1.55;;;18.50;99.90;;;;;;5095539;28;20043;-60
2021/11/26 11:40:09;;;;;;;3.03;1.17;;;18.50;99.30;;;;;;5113681;28;20050;-60
2021/11/26 11:42:40;;;;;;;2.90;1.30;;;18.60;99.20;;;;;;5095677;28;20117;-60
2021/11/26 11:45:15;;;;;;;4.13;1.25;;;18.70;99.30;;;;;;5079146;28;20035;-60
2021/11/26 11:47:55;;;;;;;2.45;1.10;;;18.70;99.50;;;;;;5114660;28;20054;-60
2021/11/26 11:50:26;;;;;;;2.33;1.70;;;18.90;99.80;;;;;;5095845;28;20048;-60
2021/11/26 11:52:58;;;;;;;2.13;1.30;;;19.00;99.80;;;;;;5113841;28;20048;-60
2021/11/26 11:55:33;;;;;;;4.35;1.67;;;19.00;99.80;;;;;;5113828;28;20089;-60
2021/11/26 11:58:16;;;;;;;4.05;1.73;;;19.00;99.60;;;;;;5095854;28;20036;-60
2021/11/26 12:00:47;;;;;;;2.83;1.60;;;19.00;99.50;;;;;;5113901;28;20039;-60
2021/11/26 12:03:18;;;;;;;3.67;1.40;;;18.90;99.20;;;;;;5098713;28;20093;-60
2021/11/26 12:06:04;;;;;;;4.00;2.00;;;18.70;99.00;;;;;;5101508;28;20040;-60
2021/11/26 12:08:45;;;;;;;2.70;1.30;;;18.70;99.40;;;;;;5082341;28;20047;-60
2021/11/26 12:11:30;;;;;;;7.80;1.50;;;18.60;99.60;;;;;;5094422;28;20381;-60
2021/11/26 12:14:12;;;;;;;4.78;1.42;;;18.40;99.90;;;;;;5111435;28;20035;-60
2021/11/26 12:16:48;;;;;;;4.07;1.60;;;18.30;99.90;;;;;;5111639;28;20428;-61
2021/11/26 12:19:23;;;;;;;13.90;2.58;;;18.10;99.80;;;;;;5114190;28;20046;-62
2021/11/26 12:21:54;;;;;;;7.72;2.42;;;18.00;99.90;;;;;;5081919;28;20043;-62
2021/11/26 12:24:31;;;;;;;4.35;2.00;;;18.10;99.90;;;;;;5098122;28;20040;-61
2021/11/26 12:27:00;;;;;;;6.35;1.67;;;18.20;99.90;;;;;;5113453;27;20056;-61
2021/11/26 12:29:38;;;;;;;3.95;1.50;;;18.30;99.90;;;;;;5077738;28;20498;-62
2021/11/26 12:32:13;;;;;;;5.30;1.40;;;18.30;99.90;;;;;;5097171;28;20059;-62
2021/11/26 12:34:43;;;;;;;4.65;1.45;;;18.30;99.90;;;;;;5097961;28;20561;-61
2021/11/26 12:37:25;;;;;;;8.80;1.63;;;18.30;99.90;;;;;;5103978;28;20040;-61
2021/11/26 12:39:56;;;;;;;4.35;1.92;;;18.20;99.90;;;;;;5123359;27;20070;-61
2021/11/26 12:42:24;;;;;;;3.65;1.25;;;18.10;99.90;;;;;;5077591;28;20493;-61
2021/11/26 12:45:00;;;;;;;3.90;1.88;;;18.00;99.90;;;;;;5087225;28;20381;-61
2021/11/26 12:48:08;;;;;;;5.75;1.38;;;18.20;99.90;;;;;;5101198;28;20050;-61
2021/11/26 12:53:25;;;;;;;4.28;2.28;;;18.20;99.90;;;;;;5125833;27;20080;-61
2021/11/26 12:55:58;;;;;;;6.50;2.15;;;18.20;99.90;;;;;;5127609;27;20035;-61
2021/11/26 12:58:29;;;;;;;3.65;2.13;;;18.20;99.90;;;;;;5105496;28;20039;-62
2021/11/26 13:01:03;;;;;;;6.75;2.63;;;18.20;99.90;;;;;;5105636;28;20078;-61
2021/11/26 13:03:41;;;;;;;4.53;2.22;;;18.10;99.90;;;;;;5087062;28;20047;-61
2021/11/26 13:06:09;;;;;;;7.75;2.40;;;18.10;99.90;;;;;;5100179;28;20040;-61
2021/11/26 13:08:39;;;;;;;5.13;1.55;;;18.00;99.90;;;;;;5080912;28;20437;-61
2021/11/26 13:11:07;;;;;;;6.57;1.33;;;18.00;99.90;;;;;;5095897;28;20122;-62
2021/11/26 13:13:36;;;;;;;3.40;1.80;;;17.90;99.90;;;;;;5104833;27;20050;-61
2021/11/26 13:16:13;;;;;;;7.75;1.92;;;17.90;99.90;;;;;;5094677;28;20039;-61